createdAt,value
2023-02-27T00:00:20.245Z,0.02
2023-02-27T00:03:23.211Z,0.02
2023-02-27T00:06:26.341Z,0.00
2023-02-27T00:09:29.314Z,-0.06
2023-02-27T00:12:38.043Z,-0.06
2023-02-27T00:15:41.142Z,-0.14
2023-02-27T00:18:44.195Z,-0.18
2023-02-27T00:21:47.845Z,-0.20
2023-02-27T00:24:50.876Z,-0.16
2023-02-27T00:27:54.000Z,-0.23
2023-02-27T00:30:57.265Z,-0.27
2023-02-27T00:34:00.570Z,-0.30
2023-02-27T00:37:03.912Z,-0.30
2023-02-27T00:40:09.957Z,-0.37
2023-02-27T00:43:13.094Z,-0.40
2023-02-27T00:46:16.131Z,-0.40
2023-02-27T00:49:20.216Z,-0.43
2023-02-27T00:52:23.226Z,-0.45
2023-02-27T00:55:27.353Z,-0.50
2023-02-27T00:58:30.339Z,-0.42
2023-02-27T01:01:33.772Z,-0.47
2023-02-27T01:04:36.959Z,-0.47
2023-02-27T01:07:40.243Z,-0.51
2023-02-27T01:10:44.146Z,-0.53
2023-02-27T01:13:47.245Z,-0.55
2023-02-27T01:16:50.202Z,-0.57
2023-02-27T01:19:53.016Z,-0.56
2023-02-27T01:22:55.712Z,-0.53
2023-02-27T01:25:58.381Z,-0.55
2023-02-27T01:29:04.666Z,-0.55
2023-02-27T01:32:08.787Z,-0.54
2023-02-27T01:35:11.418Z,-0.54
2023-02-27T01:38:14.136Z,-0.50
2023-02-27T01:41:17.037Z,-0.55
2023-02-27T01:44:19.618Z,-0.50
2023-02-27T01:47:23.010Z,-0.45
2023-02-27T01:50:25.795Z,-0.43
2023-02-27T01:53:31.157Z,-0.41
2023-02-27T01:56:33.721Z,-0.43
2023-02-27T01:59:38.981Z,-0.47
2023-02-27T02:02:48.946Z,-0.51
2023-02-27T02:05:55.448Z,-0.54
2023-02-27T02:09:00.582Z,-0.55
2023-02-27T02:12:04.998Z,-0.54
2023-02-27T02:15:08.055Z,-0.47
2023-02-27T02:18:19.444Z,-0.46
2023-02-27T02:21:31.078Z,-0.46
2023-02-27T02:25:05.985Z,-0.48
2023-02-27T02:28:27.697Z,-0.53
2023-02-27T02:31:47.113Z,-0.55
2023-02-27T02:35:04.994Z,-0.50
2023-02-27T02:38:19.709Z,-0.45
2023-02-27T02:41:52.785Z,-0.46
2023-02-27T02:44:58.341Z,-0.48
2023-02-27T02:48:16.797Z,-0.47
2023-02-27T02:51:43.103Z,-0.47
2023-02-27T02:54:53.410Z,-0.41
2023-02-27T02:58:09.040Z,-0.39
2023-02-27T03:02:03.873Z,-0.31
2023-02-27T03:05:15.789Z,-0.24
2023-02-27T03:08:22.611Z,-0.33
2023-02-27T03:11:30.226Z,-0.30
2023-02-27T03:14:40.535Z,-0.28
2023-02-27T03:17:43.562Z,-0.26
2023-02-27T03:20:57.364Z,-0.29
2023-02-27T03:24:03.815Z,-0.27
2023-02-27T03:27:09.354Z,-0.26
2023-02-27T03:30:27.425Z,-0.27
2023-02-27T03:33:39.050Z,-0.26
2023-02-27T03:36:58.438Z,-0.28
2023-02-27T03:40:23.406Z,-0.27
2023-02-27T03:43:42.162Z,-0.28
2023-02-27T03:46:44.825Z,-0.25
2023-02-27T03:49:51.375Z,-0.25
2023-02-27T03:52:58.091Z,-0.29
2023-02-27T03:56:05.771Z,-0.24
2023-02-27T03:59:08.508Z,-0.26
2023-02-27T04:02:16.121Z,-0.27
2023-02-27T04:05:20.239Z,-0.26
2023-02-27T04:09:01.623Z,-0.26
2023-02-27T04:12:19.527Z,-0.30
2023-02-27T04:16:00.961Z,-0.29
2023-02-27T04:19:29.368Z,-0.29
2023-02-27T04:22:44.850Z,-0.31
2023-02-27T04:26:08.489Z,-0.32
2023-02-27T04:29:20.467Z,-0.33
2023-02-27T04:32:35.742Z,-0.36
2023-02-27T04:35:50.874Z,-0.37
2023-02-27T04:38:57.991Z,-0.34
2023-02-27T04:42:09.685Z,-0.33
2023-02-27T04:45:16.772Z,-0.41
2023-02-27T04:48:30.324Z,-0.41
2023-02-27T04:51:58.444Z,-0.44
2023-02-27T04:55:20.967Z,-0.45
2023-02-27T04:58:37.298Z,-0.43
2023-02-27T05:01:54.174Z,-0.43
2023-02-27T05:05:00.510Z,-0.44
2023-02-27T05:08:12.904Z,-0.45
2023-02-27T05:11:24.058Z,-0.48
2023-02-27T05:14:36.525Z,-0.50
2023-02-27T05:17:50.229Z,-0.52
2023-02-27T05:21:21.193Z,-0.50
2023-02-27T05:24:29.178Z,-0.50
2023-02-27T05:27:47.839Z,-0.48
2023-02-27T05:30:59.269Z,-0.46
2023-02-27T05:34:23.545Z,-0.46
2023-02-27T05:38:16.915Z,-0.47
2023-02-27T05:41:28.945Z,-0.36
2023-02-27T05:44:38.658Z,-0.35
2023-02-27T05:47:46.802Z,-0.29
2023-02-27T05:50:52.689Z,-0.26
2023-02-27T05:54:06.520Z,-0.30
2023-02-27T05:57:14.456Z,-0.28
2023-02-27T06:05:44.419Z,-0.19
2023-02-27T06:08:47.268Z,-0.10
2023-02-27T06:11:49.979Z,-0.09
2023-02-27T06:14:52.795Z,-0.03
2023-02-27T06:17:56.422Z,0.04
2023-02-27T06:20:59.215Z,0.14
2023-02-27T06:24:01.797Z,0.18
2023-02-27T06:27:04.507Z,0.21
2023-02-27T06:30:07.761Z,0.34
2023-02-27T06:33:12.414Z,0.39
2023-02-27T06:36:15.299Z,0.50
2023-02-27T06:39:18.203Z,0.55
2023-02-27T06:42:21.177Z,0.63
2023-02-27T06:45:24.399Z,0.75
2023-02-27T06:48:27.164Z,0.95
2023-02-27T06:51:30.040Z,0.87
2023-02-27T06:54:35.185Z,0.89
2023-02-27T06:57:37.841Z,0.98
2023-02-27T07:00:40.505Z,1.11
2023-02-27T07:03:44.379Z,1.18
2023-02-27T07:07:34.311Z,1.47
2023-02-27T07:10:13.266Z,1.57
2023-02-27T07:13:19.522Z,1.46
2023-02-27T07:16:22.965Z,1.64
2023-02-27T07:19:25.634Z,1.69
2023-02-27T07:22:28.442Z,1.67
2023-02-27T07:25:31.250Z,1.57
2023-02-27T07:28:34.238Z,1.65
2023-02-27T07:31:37.334Z,1.31
2023-02-27T07:34:40.263Z,1.17
2023-02-27T07:37:42.923Z,1.15
2023-02-27T07:40:46.496Z,0.99
2023-02-27T07:43:49.125Z,1.06
2023-02-27T07:46:51.949Z,1.16
2023-02-27T07:49:55.275Z,1.16
2023-02-27T07:52:57.907Z,1.15
2023-02-27T07:56:00.688Z,1.33
2023-02-27T07:59:03.788Z,1.56
2023-02-27T08:02:07.738Z,1.49
2023-02-27T08:05:11.336Z,1.65
2023-02-27T08:08:14.413Z,1.78
2023-02-27T08:11:18.519Z,1.78
2023-02-27T08:14:21.720Z,1.92
2023-02-27T08:17:24.394Z,2.10
2023-02-27T08:20:27.868Z,2.03
2023-02-27T08:23:32.214Z,1.91
2023-02-27T08:26:35.303Z,1.67
2023-02-27T08:29:37.980Z,1.84
2023-02-27T08:32:41.522Z,1.84
2023-02-27T08:35:44.375Z,1.99
2023-02-27T08:38:47.191Z,1.96
2023-02-27T08:41:52.635Z,2.13
2023-02-27T08:44:56.714Z,2.17
2023-02-27T08:47:59.329Z,2.24
2023-02-27T08:51:02.156Z,2.22
2023-02-27T08:54:04.861Z,2.22
2023-02-27T08:57:07.516Z,2.75
2023-02-27T09:00:10.899Z,3.05
2023-02-27T09:03:14.182Z,3.67
2023-02-27T09:06:17.214Z,3.81
2023-02-27T09:09:20.843Z,3.91
2023-02-27T09:12:24.328Z,4.10
2023-02-27T09:15:28.155Z,4.72
2023-02-27T09:18:31.127Z,5.10
2023-02-27T09:21:34.738Z,5.27
2023-02-27T09:24:37.520Z,5.40
2023-02-27T09:27:40.981Z,5.57
2023-02-27T09:30:43.683Z,4.95
2023-02-27T09:33:46.639Z,4.56
2023-02-27T09:36:49.276Z,4.71
2023-02-27T09:39:52.438Z,4.03
2023-02-27T09:43:00.647Z,3.71
2023-02-27T09:46:04.569Z,3.92
2023-02-27T09:49:16.106Z,4.08
2023-02-27T09:52:19.219Z,3.86
2023-02-27T09:55:23.917Z,4.45
2023-02-27T09:58:53.195Z,4.96
2023-02-27T10:02:13.696Z,5.04
2023-02-27T10:05:18.955Z,4.75
2023-02-27T10:08:48.277Z,5.28
2023-02-27T10:12:05.845Z,5.44
2023-02-27T10:15:44.168Z,5.95
2023-02-27T10:18:58.427Z,5.87
2023-02-27T10:22:06.558Z,5.25
2023-02-27T10:25:30.666Z,5.32
2023-02-27T10:28:34.418Z,4.72
2023-02-27T10:31:37.491Z,4.68
2023-02-27T10:34:44.031Z,5.16
2023-02-27T10:37:57.975Z,4.98
2023-02-27T10:41:03.866Z,4.78
2023-02-27T10:44:07.078Z,4.03
2023-02-27T10:47:17.380Z,4.03
2023-02-27T10:50:23.590Z,4.11
2023-02-27T10:53:28.248Z,4.06
2023-02-27T10:56:31.576Z,4.19
2023-02-27T10:59:38.482Z,4.10
2023-02-27T11:02:43.929Z,3.91
2023-02-27T11:05:53.446Z,4.20
2023-02-27T11:09:11.763Z,3.88
2023-02-27T11:12:28.871Z,3.84
2023-02-27T11:15:34.256Z,3.89
2023-02-27T11:18:47.792Z,3.59
2023-02-27T11:22:00.791Z,3.37
2023-02-27T11:25:24.573Z,3.09
2023-02-27T11:28:30.123Z,2.97
2023-02-27T11:31:35.413Z,3.05
2023-02-27T11:34:56.171Z,3.12
2023-02-27T11:38:07.651Z,3.20
2023-02-27T11:41:12.397Z,3.27
2023-02-27T11:44:27.909Z,3.36
2023-02-27T11:47:47.864Z,3.38
2023-02-27T11:51:08.603Z,3.42
2023-02-27T11:54:34.949Z,3.04
2023-02-27T11:57:41.508Z,3.03
2023-02-27T12:00:55.690Z,3.10
2023-02-27T12:04:10.119Z,3.06
2023-02-27T12:07:21.866Z,3.04
2023-02-27T12:10:49.879Z,3.03
2023-02-27T12:14:02.516Z,3.21
2023-02-27T12:17:17.360Z,3.20
2023-02-27T12:20:32.313Z,3.67
2023-02-27T12:23:50.010Z,3.73
2023-02-27T12:27:44.401Z,3.46
2023-02-27T12:31:24.807Z,3.70
2023-02-27T12:34:41.044Z,3.25
2023-02-27T12:37:44.101Z,3.31
2023-02-27T12:41:14.950Z,3.41
2023-02-27T12:44:51.239Z,3.04
2023-02-27T12:48:06.468Z,3.10
2023-02-27T12:51:32.354Z,3.14
2023-02-27T12:54:58.687Z,2.99
2023-02-27T12:58:23.056Z,3.11
2023-02-27T13:01:29.012Z,3.24
2023-02-27T13:04:46.618Z,3.31
2023-02-27T13:07:58.220Z,3.03
2023-02-27T13:11:29.110Z,2.89
2023-02-27T13:14:48.517Z,3.19
2023-02-27T13:18:23.600Z,3.03
2023-02-27T13:21:38.836Z,3.16
2023-02-27T13:24:49.559Z,3.23
2023-02-27T13:27:58.570Z,2.88
2023-02-27T13:31:06.126Z,3.01
2023-02-27T13:34:44.660Z,3.11
2023-02-27T13:38:23.745Z,2.78
2023-02-27T13:41:35.542Z,2.86
2023-02-27T13:44:41.847Z,2.86
2023-02-27T13:47:50.242Z,3.11
2023-02-27T13:50:53.064Z,3.30
2023-02-27T13:54:14.207Z,3.43
2023-02-27T13:57:23.290Z,3.70
2023-02-27T14:00:30.284Z,3.80
2023-02-27T14:03:33.139Z,3.93
2023-02-27T14:06:44.472Z,3.99
2023-02-27T14:09:50.443Z,3.85
2023-02-27T14:12:53.426Z,3.48
2023-02-27T14:15:57.955Z,3.68
2023-02-27T14:19:01.800Z,3.64
2023-02-27T14:22:16.353Z,3.26
2023-02-27T14:25:32.016Z,3.26
2023-02-27T14:28:41.615Z,3.10
2023-02-27T14:31:45.240Z,3.10
2023-02-27T14:34:48.692Z,3.10
2023-02-27T14:37:53.870Z,2.96
2023-02-27T14:41:02.213Z,3.00
2023-02-27T14:44:07.418Z,3.03
2023-02-27T14:47:38.272Z,3.14
2023-02-27T14:50:42.007Z,3.13
2023-02-27T14:53:44.520Z,3.15
2023-02-27T14:56:57.147Z,3.01
2023-02-27T14:59:59.777Z,2.89
2023-02-27T15:03:16.558Z,2.88
2023-02-27T15:06:29.467Z,2.76
2023-02-27T15:09:48.290Z,2.53
2023-02-27T15:12:52.469Z,2.43
2023-02-27T15:16:21.121Z,2.29
2023-02-27T15:19:26.656Z,2.18
2023-02-27T15:22:39.423Z,2.03
2023-02-27T15:25:43.388Z,1.98
2023-02-27T15:28:49.285Z,1.86
2023-02-27T15:31:53.355Z,1.79
2023-02-27T15:35:02.721Z,1.75
2023-02-27T15:38:06.173Z,1.70
2023-02-27T15:41:12.488Z,1.58
2023-02-27T15:44:23.510Z,1.50
2023-02-27T15:47:29.722Z,1.41
2023-02-27T15:50:43.167Z,1.31
2023-02-27T15:53:50.770Z,1.26
2023-02-27T15:56:54.057Z,1.22
2023-02-27T15:59:58.828Z,1.19
2023-02-27T16:03:01.966Z,1.14
2023-02-27T16:06:33.232Z,1.07
2023-02-27T16:09:38.447Z,0.97
2023-02-27T16:12:43.188Z,0.86
2023-02-27T16:15:45.966Z,0.84
2023-02-27T16:18:51.421Z,0.68
2023-02-27T16:22:13.587Z,0.59
2023-02-27T16:25:19.746Z,0.49
2023-02-27T16:28:22.622Z,0.43
2023-02-27T16:31:25.673Z,0.46
2023-02-27T16:34:44.217Z,0.38
2023-02-27T16:37:49.761Z,0.26
2023-02-27T16:40:52.584Z,0.26
2023-02-27T16:43:56.706Z,0.24
2023-02-27T16:46:59.749Z,0.27
2023-02-27T16:50:02.852Z,0.20
2023-02-27T16:53:05.668Z,0.19
2023-02-27T16:56:12.227Z,0.14
2023-02-27T16:59:35.162Z,0.07
2023-02-27T17:02:38.929Z,0.05
2023-02-27T17:05:41.698Z,0.03
2023-02-27T17:08:44.889Z,0.04
2023-02-27T17:11:47.619Z,0.04
2023-02-27T17:14:50.682Z,-0.08
2023-02-27T17:17:53.437Z,-0.10
2023-02-27T17:20:59.757Z,-0.10
2023-02-27T17:24:03.037Z,-0.18
2023-02-27T17:27:06.731Z,-0.22
2023-02-27T17:30:10.384Z,-0.30
2023-02-27T17:33:13.483Z,-0.37
2023-02-27T17:36:16.889Z,-0.40
2023-02-27T17:39:19.922Z,-0.39
2023-02-27T17:42:25.700Z,-0.36
2023-02-27T17:45:29.109Z,-0.42
2023-02-27T17:48:32.138Z,-0.43
2023-02-27T17:51:35.177Z,-0.42
2023-02-27T17:54:38.118Z,-0.42
2023-02-27T17:57:41.680Z,-0.44
2023-02-27T18:00:44.786Z,-0.47
2023-02-27T18:03:49.505Z,-0.49
2023-02-27T18:06:52.331Z,-0.54
2023-02-27T18:09:55.896Z,-0.61
2023-02-27T18:12:58.955Z,-0.70
2023-02-27T18:16:02.081Z,-0.66
2023-02-27T18:19:06.581Z,-0.63
2023-02-27T18:22:11.393Z,-0.67
2023-02-27T18:25:15.848Z,-0.74
2023-02-27T18:28:19.747Z,-0.84
2023-02-27T18:31:28.622Z,-0.86
2023-02-27T18:34:31.591Z,-0.82
2023-02-27T18:37:34.799Z,-0.76
2023-02-27T18:40:37.884Z,-0.85
2023-02-27T18:43:42.700Z,-0.83
2023-02-27T18:46:45.775Z,-0.82
2023-02-27T18:49:48.827Z,-0.79
2023-02-27T18:52:52.028Z,-0.79
2023-02-27T18:56:00.630Z,-0.83
2023-02-27T18:59:05.686Z,-0.81
2023-02-27T19:02:15.984Z,-0.84
2023-02-27T19:05:19.195Z,-0.83
2023-02-27T19:08:25.090Z,-0.79
2023-02-27T19:11:33.202Z,-0.86
2023-02-27T19:14:38.040Z,-0.98
2023-02-27T19:17:41.377Z,-0.97
2023-02-27T19:20:44.451Z,-1.04
2023-02-27T19:23:47.805Z,-1.03
2023-02-27T19:26:53.369Z,-1.11
2023-02-27T19:29:56.865Z,-1.09
2023-02-27T19:32:59.890Z,-1.12
2023-02-27T19:36:13.196Z,-1.21
2023-02-27T19:39:16.290Z,-1.23
2023-02-27T19:42:19.619Z,-1.34
2023-02-27T19:45:23.433Z,-1.41
2023-02-27T19:48:26.703Z,-1.41
2023-02-27T19:51:30.010Z,-1.49
2023-02-27T19:54:33.336Z,-1.53
2023-02-27T19:57:37.005Z,-1.47
2023-02-27T20:00:42.038Z,-1.46
2023-02-27T20:03:45.305Z,-1.46
2023-02-27T20:06:50.946Z,-1.41
2023-02-27T20:09:54.405Z,-1.37
2023-02-27T20:12:57.907Z,-1.37
2023-02-27T20:16:07.462Z,-1.49
2023-02-27T20:19:13.398Z,-1.46
2023-02-27T20:22:17.171Z,-1.48
2023-02-27T20:25:20.291Z,-1.49
2023-02-27T20:28:23.585Z,-1.53
2023-02-27T20:31:29.759Z,-1.56
2023-02-27T20:34:33.211Z,-1.55
2023-02-27T20:37:36.578Z,-1.63
2023-02-27T20:40:39.463Z,-1.76
2023-02-27T20:43:43.505Z,-1.79
2023-02-27T20:46:49.287Z,-1.86
2023-02-27T20:49:53.162Z,-1.89
2023-02-27T20:52:56.169Z,-1.88
2023-02-27T20:55:59.044Z,-1.94
2023-02-27T20:59:03.663Z,-1.88
2023-02-27T21:02:08.887Z,-1.93
2023-02-27T21:05:12.059Z,-1.95
2023-02-27T21:08:15.603Z,-1.99
2023-02-27T21:11:21.725Z,-2.04
2023-02-27T21:14:24.611Z,-2.07
2023-02-27T21:17:27.512Z,-2.12
2023-02-27T21:20:31.726Z,-2.00
2023-02-27T21:23:41.581Z,-2.05
2023-02-27T21:26:45.168Z,-2.01
2023-02-27T21:29:49.026Z,-1.99
2023-02-27T21:32:51.948Z,-1.98
2023-02-27T21:35:54.902Z,-2.00
2023-02-27T21:39:07.716Z,-2.06
2023-02-27T21:42:10.392Z,-2.14
2023-02-27T21:45:13.590Z,-2.17
2023-02-27T21:48:16.241Z,-2.20
2023-02-27T21:51:32.969Z,-2.22
2023-02-27T21:54:39.533Z,-2.29
2023-02-27T21:57:42.549Z,-2.22
2023-02-27T22:00:45.281Z,-2.15
2023-02-27T22:03:50.974Z,-2.20
2023-02-27T22:06:53.734Z,-2.22
2023-02-27T22:09:56.942Z,-2.23
2023-02-27T22:12:59.695Z,-2.26
2023-02-27T22:16:08.243Z,-2.34
2023-02-27T22:19:19.865Z,-2.38
2023-02-27T22:22:23.301Z,-2.49
2023-02-27T22:25:26.336Z,-2.48
2023-02-27T22:28:30.619Z,-2.54
2023-02-27T22:31:36.935Z,-2.61
2023-02-27T22:34:39.890Z,-2.64
2023-02-27T22:37:42.970Z,-2.69
2023-02-27T22:40:45.945Z,-2.57
2023-02-27T22:43:48.589Z,-2.71
2023-02-27T22:46:51.488Z,-2.80
2023-02-27T22:49:54.076Z,-2.73
2023-02-27T22:52:57.298Z,-2.71
2023-02-27T22:56:00.117Z,-2.72
2023-02-27T22:59:03.772Z,-2.74
2023-02-27T23:02:06.756Z,-2.65
2023-02-27T23:05:10.154Z,-2.72
2023-02-27T23:08:12.887Z,-2.74
2023-02-27T23:11:17.112Z,-2.83
2023-02-27T23:14:21.671Z,-2.88
2023-02-27T23:17:24.822Z,-2.87
2023-02-27T23:20:27.697Z,-2.88
2023-02-27T23:23:30.660Z,-2.91
2023-02-27T23:26:47.258Z,-2.99
2023-02-27T23:29:50.084Z,-3.06
2023-02-27T23:32:53.077Z,-3.08
2023-02-27T23:35:57.925Z,-3.11
2023-02-27T23:39:03.003Z,-3.19
2023-02-27T23:42:06.305Z,-3.14
2023-02-27T23:45:22.787Z,-3.13
2023-02-27T23:48:25.919Z,-3.19
2023-02-27T23:51:30.589Z,-3.15
2023-02-27T23:54:34.022Z,-3.06
2023-02-27T23:57:36.854Z,-2.97
